Time;durP1;ratioP1;P1;durP2;ratioP2;P2;SDS_P1;SDS_P2;PMS_P1;PMS_P2;Temp;Humidity;BMP_temperature;BMP_pressure;BME280_temperature;BME280_humidity;BME280_pressure;Samples;Min_cycle;Max_cycle;Signal;HPM_P1;HPM_P2
2022/10/25 00:02:22;;;;;;;39.67;6.13;;;;;;;13.22;100.00;99932.28;4953126;29;20114;-64
2022/10/25 00:04:47;;;;;;;40.92;5.40;;;;;;;13.24;100.00;99934.72;4935836;29;20402;-63
2022/10/25 00:07:13;;;;;;;32.38;5.55;;;;;;;13.24;100.00;99934.72;4953166;29;20023;-63
2022/10/25 00:09:38;;;;;;;37.88;6.32;;;;;;;13.26;100.00;99943.44;4953117;29;20050;-63
2022/10/25 00:12:04;;;;;;;28.45;4.55;;;;;;;13.04;100.00;99919.72;4936107;29;20070;-64
2022/10/25 00:14:33;;;;;;;28.98;4.60;;;;;;;13.16;100.00;99941.31;4952980;29;20329;-64
2022/10/25 00:16:58;;;;;;;32.22;4.57;;;;;;;13.17;100.00;99940.25;4952843;28;20486;-63
2022/10/25 00:19:24;;;;;;;33.47;4.85;;;;;;;13.14;100.00;99938.03;4953355;29;20050;-64
2022/10/25 00:21:49;;;;;;;26.30;3.92;;;;;;;13.12;100.00;99935.56;4935738;29;20043;-67
2022/10/25 00:24:14;;;;;;;36.42;4.60;;;;;;;13.12;100.00;99946.38;4952966;29;20135;-63
2022/10/25 00:26:42;;;;;;;30.55;4.20;;;;;;;13.13;100.00;99936.38;4935888;29;20031;-63
2022/10/25 00:29:09;;;;;;;40.72;4.90;;;;;;;13.12;100.00;99935.56;4955321;28;20126;-63
2022/10/25 00:31:54;;;;;;;28.98;4.70;;;;;;;13.10;100.00;99943.09;4916132;29;20535;-63
2022/10/25 00:34:40;;;;;;;31.20;5.10;;;;;;;12.70;100.00;99881.72;4878677;29;20049;-63
2022/10/25 00:37:05;;;;;;;29.50;4.80;;;;;;;13.08;100.00;99945.22;4863190;29;20618;-63
2022/10/25 00:39:31;;;;;;;29.52;4.63;;;;;;;13.07;100.00;99942.72;4878950;29;20045;-64
2022/10/25 00:41:56;;;;;;;30.40;5.28;;;;;;;13.05;100.00;99936.78;4863212;29;20043;-63
2022/10/25 00:44:46;;;;;;;32.20;5.00;;;;;;;13.07;100.00;99938.16;4847519;29;20725;-63
2022/10/25 00:47:20;;;;;;;32.90;5.20;;;;;;;13.05;100.00;99940.28;4878616;29;20333;-63
2022/10/25 00:49:54;;;;;;;29.20;5.00;;;;;;;13.05;100.00;99925.97;4878596;29;20124;-66
2022/10/25 00:52:20;;;;;;;45.38;5.53;;;;;;;13.02;100.00;99919.16;4864138;29;20040;-63
2022/10/25 00:54:50;;;;;;;38.42;5.00;;;;;;;13.06;100.00;99931.13;4862943;29;20049;-63
2022/10/25 00:57:27;;;;;;;34.67;4.90;;;;;;;13.00;100.00;99915.03;4878556;29;20440;-63
2022/10/25 00:59:52;;;;;;;42.20;5.93;;;;;;;13.07;100.00;99937.34;4878422;29;20101;-63
2022/10/25 01:02:21;;;;;;;39.05;5.20;;;;;;;13.04;100.00;99922.41;4862915;29;20056;-63
2022/10/25 01:04:46;;;;;;;50.42;6.53;;;;;;;13.03;100.00;99930.78;4883135;29;20073;-65
2022/10/25 01:07:12;;;;;;;50.63;7.07;;;;;;;13.04;100.00;99932.41;4900168;29;20040;-63
2022/10/25 01:09:39;;;;;;;50.58;6.80;;;;;;;13.03;100.00;99931.59;4940681;29;20047;-63
2022/10/25 01:12:05;;;;;;;49.92;7.70;;;;;;;13.01;100.00;99917.47;4956191;29;20050;-63
2022/10/25 01:14:33;;;;;;;40.33;7.10;;;;;;;12.92;100.00;99916.22;4956218;29;20027;-65
2022/10/25 01:17:14;;;;;;;53.53;7.30;;;;;;;12.99;100.00;99922.31;4956175;28;20110;-64
2022/10/25 01:20:01;;;;;;;46.90;7.13;;;;;;;12.99;100.00;99921.50;4939357;29;20106;-63
2022/10/25 01:22:52;;;;;;;44.03;6.55;;;;;;;13.04;100.00;99922.41;4941742;29;20038;-64
2022/10/25 01:25:38;;;;;;;53.40;6.82;;;;;;;13.01;100.00;99922.88;4956038;29;20031;-64
2022/10/25 01:28:19;;;;;;;44.70;5.78;;;;;;;13.02;100.00;99926.44;4955634;28;20446;-63
2022/10/25 01:30:56;;;;;;;60.72;7.40;;;;;;;13.03;100.00;99923.47;4955743;29;20130;-64
2022/10/25 01:33:46;;;;;;;49.38;6.97;;;;;;;13.03;100.00;99903.75;4938518;29;20027;-64
2022/10/25 01:36:32;;;;;;;61.60;7.47;;;;;;;13.01;100.00;99912.09;4896086;29;20401;-64
2022/10/25 01:39:13;;;;;;;41.03;6.28;;;;;;;12.77;100.00;99883.47;4896383;29;20044;-64
2022/10/25 01:41:52;;;;;;;60.05;8.90;;;;;;;12.98;100.00;99909.88;4895999;29;20527;-64
2022/10/25 01:44:23;;;;;;;55.83;7.10;;;;;;;12.96;100.00;99905.78;4881286;29;20040;-64
2022/10/25 01:46:56;;;;;;;48.65;6.75;;;;;;;12.96;100.00;99901.19;4896180;29;20667;-64
2022/10/25 01:50:05;;;;;;;42.72;6.68;;;;;;;12.96;100.00;99903.88;4896297;29;20100;-64
2022/10/25 01:52:30;;;;;;;45.80;6.68;;;;;;;12.94;100.00;99904.09;4864798;29;20028;-64
2022/10/25 01:54:55;;;;;;;53.38;7.22;;;;;;;12.93;100.00;99907.06;4880436;29;20431;-64
2022/10/25 01:57:45;;;;;;;66.85;7.70;;;;;;;12.90;100.00;99894.84;4896188;29;20049;-64
2022/10/25 02:00:17;;;;;;;52.92;7.18;;;;;;;12.89;100.00;99897.78;4896107;29;20041;-64
2022/10/25 02:03:03;;;;;;;44.22;6.38;;;;;;;12.87;100.00;99902.59;4896077;29;20064;-65
2022/10/25 02:05:53;;;;;;;53.55;7.50;;;;;;;12.90;100.00;99896.72;4880236;29;20458;-64
2022/10/25 02:08:27;;;;;;;50.08;7.25;;;;;;;12.87;100.00;99894.50;4937465;29;20130;-64
2022/10/25 02:11:05;;;;;;;62.00;7.45;;;;;;;12.88;100.00;99880.78;4937988;29;20106;-64
2022/10/25 02:14:24;;;;;;;50.03;8.20;;;;;;;12.11;100.00;99781.06;4955386;28;20498;-64
2022/10/25 02:16:58;;;;;;;53.00;7.43;;;;;;;12.89;100.00;99887.00;4880068;29;20612;-64
2022/10/25 02:19:30;;;;;;;50.25;7.97;;;;;;;12.85;100.00;99896.63;4941792;29;20517;-64
2022/10/25 02:21:57;;;;;;;51.72;7.18;;;;;;;12.86;100.00;99892.88;4937285;29;20196;-64
2022/10/25 02:24:27;;;;;;;62.40;7.40;;;;;;;12.89;100.00;99892.41;4954164;29;20035;-64
2022/10/25 02:26:54;;;;;;;50.22;7.05;;;;;;;12.88;100.00;99890.72;4955165;29;20470;-64
2022/10/25 02:29:21;;;;;;;40.05;6.03;;;;;;;12.89;100.00;99887.81;4954744;28;20063;-64
2022/10/25 02:31:47;;;;;;;44.65;6.70;;;;;;;12.88;100.00;99893.44;4955036;29;20384;-64
2022/10/25 02:34:12;;;;;;;44.90;7.60;;;;;;;12.87;100.00;99897.19;4954644;29;20042;-64
2022/10/25 02:36:37;;;;;;;42.40;6.28;;;;;;;12.87;100.00;99900.72;4954831;29;20036;-65
2022/10/25 02:39:05;;;;;;;41.28;5.85;;;;;;;12.82;100.00;99889.00;4937386;29;20043;-64
2022/10/25 02:41:31;;;;;;;39.22;6.53;;;;;;;12.65;100.00;99868.13;4954644;29;20486;-64
2022/10/25 02:43:56;;;;;;;40.35;6.18;;;;;;;12.87;100.00;99908.00;4937276;29;20046;-64
2022/10/25 02:46:23;;;;;;;46.95;6.82;;;;;;;12.86;100.00;99903.66;4937181;29;20031;-64
2022/10/25 02:49:08;;;;;;;37.03;5.55;;;;;;;12.86;100.00;99900.97;4954501;29;20041;-64
2022/10/25 02:51:33;;;;;;;35.20;5.72;;;;;;;12.72;100.00;99886.91;4954069;28;20054;-66
2022/10/25 02:53:59;;;;;;;33.58;5.63;;;;;;;12.83;100.00;99904.13;4919049;29;20040;-64
2022/10/25 02:56:24;;;;;;;38.58;5.93;;;;;;;12.84;100.00;99912.00;4953723;29;20093;-65
2022/10/25 02:58:51;;;;;;;46.92;6.78;;;;;;;12.69;100.00;99879.28;4954305;29;20055;-64
2022/10/25 03:01:18;;;;;;;43.63;6.78;;;;;;;12.85;100.00;99904.72;4953956;29;20035;-64
2022/10/25 03:03:44;;;;;;;33.22;5.78;;;;;;;12.84;100.00;99922.78;4953769;29;20062;-64
2022/10/25 03:06:11;;;;;;;33.03;5.70;;;;;;;12.78;100.00;99910.25;4934694;29;20166;-64
2022/10/25 03:08:37;;;;;;;31.92;5.25;;;;;;;12.86;100.00;99909.06;4934930;29;20029;-64
2022/10/25 03:11:23;;;;;;;37.25;6.85;;;;;;;12.82;100.00;99910.59;4934845;29;20446;-64
2022/10/25 03:13:49;;;;;;;46.67;5.63;;;;;;;12.84;100.00;99919.28;4953608;29;20031;-64
2022/10/25 03:16:14;;;;;;;30.92;5.13;;;;;;;12.83;100.00;99912.25;4936107;29;20041;-63
2022/10/25 03:18:39;;;;;;;28.45;5.90;;;;;;;12.81;100.00;99914.34;4954019;29;20446;-64
2022/10/25 03:21:05;;;;;;;33.42;5.85;;;;;;;12.77;100.00;99905.06;4953876;29;20110;-64
2022/10/25 03:23:31;;;;;;;32.30;5.65;;;;;;;12.83;100.00;99914.94;4953986;29;20031;-64
2022/10/25 03:25:58;;;;;;;33.95;6.68;;;;;;;12.83;100.00;99915.75;4936438;29;20062;-64
2022/10/25 03:28:26;;;;;;;34.58;5.63;;;;;;;12.72;100.00;99897.69;4953888;29;20027;-64
2022/10/25 03:30:52;;;;;;;29.55;5.28;;;;;;;12.86;100.00;99911.78;4935857;29;20197;-64
2022/10/25 03:33:18;;;;;;;36.15;6.05;;;;;;;12.72;100.00;99905.78;4954109;29;20047;-64
2022/10/25 03:35:43;;;;;;;39.78;6.15;;;;;;;12.72;100.00;99897.69;4936340;29;20054;-64
2022/10/25 03:38:08;;;;;;;42.58;6.25;;;;;;;12.83;100.00;99923.03;4953406;29;20047;-64
2022/10/25 03:40:34;;;;;;;45.40;6.30;;;;;;;12.81;100.00;99912.44;4953402;29;20027;-64
2022/10/25 03:42:59;;;;;;;30.95;6.00;;;;;;;12.85;100.00;99920.94;4953422;28;20073;-64
2022/10/25 03:45:25;;;;;;;34.92;6.03;;;;;;;12.84;100.00;99938.16;4953317;29;20490;-63
2022/10/25 03:47:50;;;;;;;37.78;6.13;;;;;;;12.86;100.00;99925.25;4936460;29;20035;-64
2022/10/25 03:50:16;;;;;;;36.35;6.32;;;;;;;12.85;100.00;99929.84;4935459;29;20050;-65
2022/10/25 03:52:41;;;;;;;44.03;6.32;;;;;;;12.68;100.00;99908.16;4936420;29;20098;-64
2022/10/25 03:55:07;;;;;;;45.85;6.50;;;;;;;12.88;100.00;99939.34;4953115;29;20045;-64
2022/10/25 03:57:33;;;;;;;43.28;6.55;;;;;;;12.86;100.00;99933.38;4936164;29;20097;-64
2022/10/25 03:59:58;;;;;;;40.58;6.70;;;;;;;12.82;100.00;99926.81;4936228;29;20402;-63
2022/10/25 04:02:24;;;;;;;42.15;6.85;;;;;;;12.87;100.00;99945.81;4952838;29;20082;-64
2022/10/25 04:04:50;;;;;;;40.35;6.22;;;;;;;12.85;100.00;99945.22;4952967;29;20078;-64
2022/10/25 04:07:15;;;;;;;37.72;6.07;;;;;;;12.88;100.00;99950.97;4934396;29;20031;-64
2022/10/25 04:09:46;;;;;;;45.17;6.40;;;;;;;12.90;100.00;99954.25;4951495;29;20042;-64
2022/10/25 04:12:12;;;;;;;44.38;6.50;;;;;;;12.91;100.00;99957.75;4953494;29;20043;-64
2022/10/25 04:14:37;;;;;;;41.17;6.63;;;;;;;12.89;100.00;99957.19;4953084;29;20380;-64
2022/10/25 04:17:03;;;;;;;41.25;6.90;;;;;;;12.90;100.00;99956.94;4953299;29;20110;-64
2022/10/25 04:19:28;;;;;;;40.92;6.28;;;;;;;12.91;100.00;99955.91;4953093;29;20031;-64
2022/10/25 04:21:54;;;;;;;40.00;6.38;;;;;;;12.90;100.00;99965.06;4952686;29;20039;-64
2022/10/25 04:24:21;;;;;;;46.70;6.03;;;;;;;12.85;100.00;99956.03;4953045;29;20431;-64
2022/10/25 04:26:47;;;;;;;29.73;5.32;;;;;;;12.94;100.00;99962.69;4953082;29;20118;-65
2022/10/25 04:29:12;;;;;;;40.30;5.97;;;;;;;12.87;100.00;99956.59;4952542;28;20171;-65
2022/10/25 04:31:38;;;;;;;39.95;5.80;;;;;;;12.93;100.00;99974.56;4935734;29;20047;-64
2022/10/25 04:34:03;;;;;;;33.55;5.85;;;;;;;12.96;100.00;99971.41;4935828;29;20042;-64
2022/10/25 04:36:29;;;;;;;36.55;5.75;;;;;;;12.94;100.00;99973.50;4952820;29;20072;-65
2022/10/25 04:38:54;;;;;;;34.80;6.43;;;;;;;12.94;100.00;99976.19;4935869;29;20146;-65
2022/10/25 04:41:20;;;;;;;40.33;6.25;;;;;;;12.71;100.00;99933.81;4952963;29;20042;-65
2022/10/25 04:43:46;;;;;;;44.40;6.68;;;;;;;12.92;100.00;99970.22;4952954;29;20035;-65
2022/10/25 04:46:13;;;;;;;33.05;6.15;;;;;;;12.92;100.00;99975.63;4935434;29;20041;-66
2022/10/25 04:48:40;;;;;;;44.38;6.00;;;;;;;12.93;100.00;99969.97;4953136;29;20030;-65
2022/10/25 04:51:05;;;;;;;40.95;6.20;;;;;;;12.92;100.00;99975.63;4952549;29;20055;-65
2022/10/25 04:53:31;;;;;;;42.67;6.28;;;;;;;12.80;100.00;99964.81;4946320;29;20062;-64
2022/10/25 04:56:01;;;;;;;37.63;5.72;;;;;;;12.77;100.00;99950.97;4949810;29;20062;-65
2022/10/25 04:58:27;;;;;;;30.15;6.25;;;;;;;12.79;100.00;99963.19;4952530;29;20085;-65
2022/10/25 05:00:53;;;;;;;34.42;5.35;;;;;;;12.91;100.00;99988.31;4952750;29;20566;-65
2022/10/25 05:03:19;;;;;;;43.22;6.63;;;;;;;12.94;100.00;99987.81;4952599;29;20035;-64
2022/10/25 05:05:45;;;;;;;34.00;5.55;;;;;;;12.90;100.00;99985.84;4952724;29;20050;-65
2022/10/25 05:08:11;;;;;;;31.52;5.32;;;;;;;12.83;100.00;99983.25;4952560;29;20031;-65
2022/10/25 05:10:36;;;;;;;35.70;6.35;;;;;;;12.89;100.00;99995.81;4935642;29;20518;-65
2022/10/25 05:13:01;;;;;;;36.53;5.97;;;;;;;12.89;100.00;99995.81;4952696;29;20043;-65
2022/10/25 05:15:30;;;;;;;40.60;5.97;;;;;;;12.90;100.00;99999.34;4922082;29;20518;-65
2022/10/25 05:17:57;;;;;;;36.42;5.25;;;;;;;12.88;100.00;99999.59;4956117;29;20060;-65
2022/10/25 05:20:23;;;;;;;38.58;5.60;;;;;;;12.76;100.00;99977.16;4923228;29;20038;-65
2022/10/25 05:22:48;;;;;;;34.95;6.00;;;;;;;12.84;100.00;100000.25;4938766;29;20023;-65
2022/10/25 05:25:16;;;;;;;37.15;5.72;;;;;;;12.90;100.00;100013.66;4955769;29;20134;-65
2022/10/25 05:27:42;;;;;;;34.42;6.15;;;;;;;12.87;100.00;100010.59;4938507;29;20490;-66
2022/10/25 05:30:08;;;;;;;33.15;5.53;;;;;;;12.91;100.00;100019.88;4930718;29;20106;-65
2022/10/25 05:32:33;;;;;;;36.95;5.55;;;;;;;12.91;100.00;100027.97;4936558;29;20534;-66
2022/10/25 05:34:59;;;;;;;34.47;5.55;;;;;;;12.87;100.00;100007.91;4919547;29;20055;-65
2022/10/25 05:37:24;;;;;;;35.65;5.95;;;;;;;12.96;100.00;100032.69;4903538;29;20460;-65
2022/10/25 05:39:50;;;;;;;40.03;5.65;;;;;;;12.92;100.00;100033.16;4920148;29;20039;-64
2022/10/25 05:42:15;;;;;;;45.97;6.80;;;;;;;12.90;100.00;100029.84;4936260;29;20035;-65
2022/10/25 05:44:40;;;;;;;37.03;5.65;;;;;;;12.90;100.00;100032.56;4936437;29;20122;-65
2022/10/25 05:47:06;;;;;;;33.47;5.57;;;;;;;12.73;100.00;100001.09;4918938;29;20067;-65
2022/10/25 05:49:38;;;;;;;36.05;6.00;;;;;;;12.91;100.00;100038.78;4936171;29;20495;-65
2022/10/25 05:52:08;;;;;;;33.42;5.30;;;;;;;12.79;100.00;100024.44;4936388;29;20070;-65
2022/10/25 05:54:33;;;;;;;37.75;5.97;;;;;;;12.98;100.00;100041.34;4936167;29;20036;-65
2022/10/25 05:56:59;;;;;;;40.00;6.93;;;;;;;12.81;100.00;100017.75;4919050;29;20047;-65
2022/10/25 05:59:24;;;;;;;46.42;6.72;;;;;;;12.90;100.00;100053.34;4936089;29;20031;-65
2022/10/25 06:01:50;;;;;;;42.60;5.85;;;;;;;12.84;100.00;100043.47;4903467;29;20166;-65
2022/10/25 06:04:16;;;;;;;40.30;6.10;;;;;;;12.85;100.00;100043.25;4936046;29;20118;-66
2022/10/25 06:06:43;;;;;;;39.75;5.72;;;;;;;12.85;100.00;100048.66;4918745;29;20071;-65
2022/10/25 06:09:09;;;;;;;37.83;6.20;;;;;;;12.63;100.00;100028.66;4935940;29;20039;-65
2022/10/25 06:11:36;;;;;;;39.35;6.10;;;;;;;12.82;100.00;100067.19;4935925;29;20027;-65
2022/10/25 06:14:05;;;;;;;40.00;5.97;;;;;;;12.86;100.00;100058.38;4918712;29;20432;-64
2022/10/25 06:16:30;;;;;;;40.85;6.07;;;;;;;12.75;100.00;100034.91;4935710;29;20155;-64
2022/10/25 06:18:58;;;;;;;40.15;6.40;;;;;;;12.94;100.00;100073.41;4918852;29;20118;-65
2022/10/25 06:21:26;;;;;;;46.50;6.65;;;;;;;12.87;100.00;100062.72;4935878;29;20048;-64
2022/10/25 06:23:52;;;;;;;43.70;6.38;;;;;;;12.94;100.00;100076.09;4935857;29;20034;-65
2022/10/25 06:26:39;;;;;;;36.25;5.90;;;;;;;12.91;100.00;100077.44;4917801;29;20036;-65
2022/10/25 06:29:04;;;;;;;42.25;6.82;;;;;;;12.90;100.00;100083.03;4868402;29;20045;-64
2022/10/25 06:31:31;;;;;;;40.28;5.85;;;;;;;12.90;100.00;100086.56;4872248;29;20057;-64
2022/10/25 06:34:01;;;;;;;35.10;6.78;;;;;;;12.91;100.00;100090.06;4880258;29;20053;-64
2022/10/25 06:36:27;;;;;;;47.17;6.93;;;;;;;12.90;100.00;100086.56;4880369;29;20047;-64
2022/10/25 06:38:53;;;;;;;41.70;5.95;;;;;;;12.92;100.00;100092.56;4873066;29;20061;-63
2022/10/25 06:41:39;;;;;;;33.03;5.55;;;;;;;12.93;100.00;100098.78;4887031;29;20451;-63
2022/10/25 06:44:05;;;;;;;45.38;6.68;;;;;;;12.79;100.00;100078.44;4825015;29;20106;-63
2022/10/25 06:46:32;;;;;;;42.78;6.32;;;;;;;12.95;100.00;100096.69;4853914;29;20037;-63
2022/10/25 06:49:04;;;;;;;39.63;5.78;;;;;;;12.96;100.00;100098.31;4846880;29;20116;-63
2022/10/25 06:51:31;;;;;;;38.58;6.40;;;;;;;12.97;100.00;100096.44;4846608;29;20058;-63
2022/10/25 06:53:58;;;;;;;38.13;5.65;;;;;;;12.95;100.00;100099.38;4854465;29;20045;-63
2022/10/25 06:56:25;;;;;;;40.55;6.40;;;;;;;12.98;100.00;100096.22;4842455;29;20040;-63
2022/10/25 06:58:51;;;;;;;41.03;6.45;;;;;;;12.97;100.00;100105.34;4835809;29;20049;-63
2022/10/25 07:01:18;;;;;;;36.40;6.32;;;;;;;12.97;100.00;100116.16;4876385;29;20056;-63
2022/10/25 07:03:45;;;;;;;34.20;6.00;;;;;;;12.99;100.00;100114.06;4862596;29;20053;-63
2022/10/25 07:06:10;;;;;;;43.83;6.53;;;;;;;12.98;100.00;100114.28;4870596;29;20037;-63
2022/10/25 07:08:37;;;;;;;37.03;5.93;;;;;;;13.01;100.00;100116.50;4859935;29;20066;-63
2022/10/25 07:11:03;;;;;;;43.47;6.35;;;;;;;13.03;100.00;100109.84;4865659;29;20117;-63
2022/10/25 07:13:31;;;;;;;46.47;6.47;;;;;;;13.03;100.00;100107.13;4866703;29;20040;-63
2022/10/25 07:16:05;;;;;;;37.45;5.88;;;;;;;13.07;100.00;100116.41;4923976;29;20058;-63
2022/10/25 07:18:31;;;;;;;38.20;5.33;;;;;;;13.09;100.00;100132.41;4898124;29;20475;-63
2022/10/25 07:20:58;;;;;;;35.47;5.20;;;;;;;13.10;100.00;100123.22;4898491;29;20032;-63
2022/10/25 07:23:23;;;;;;;44.28;6.35;;;;;;;13.08;100.00;100120.78;4926957;29;20039;-63
2022/10/25 07:25:49;;;;;;;43.15;6.55;;;;;;;13.04;100.00;100122.28;4903286;29;20376;-63
2022/10/25 07:28:14;;;;;;;38.97;5.80;;;;;;;13.09;100.00;100133.22;4930809;29;20078;-63
2022/10/25 07:30:45;;;;;;;36.80;6.38;;;;;;;13.08;100.00;100138.88;4933068;28;20051;-63
2022/10/25 07:33:10;;;;;;;41.28;6.45;;;;;;;13.07;100.00;100131.78;4937552;29;20031;-62
2022/10/25 07:35:35;;;;;;;31.90;5.18;;;;;;;13.07;100.00;100134.50;4936423;29;20031;-62
2022/10/25 07:38:01;;;;;;;35.17;5.25;;;;;;;13.14;100.00;100144.16;4952481;28;20038;-63
2022/10/25 07:40:26;;;;;;;35.42;5.50;;;;;;;13.16;100.00;100136.63;4953594;28;20090;-62
2022/10/25 07:42:51;;;;;;;38.65;5.70;;;;;;;13.20;100.00;100142.38;4936280;29;20058;-62
2022/10/25 07:45:17;;;;;;;37.67;5.70;;;;;;;13.24;100.00;100134.63;4936340;29;20098;-62
2022/10/25 07:47:42;;;;;;;32.42;5.35;;;;;;;13.24;100.00;100143.59;4953446;29;20074;-63
2022/10/25 07:50:08;;;;;;;30.90;5.53;;;;;;;13.25;100.00;100139.03;4953313;29;20051;-63
2022/10/25 07:52:33;;;;;;;40.28;5.85;;;;;;;13.37;100.00;100145.25;4920492;29;20102;-63
2022/10/25 07:54:59;;;;;;;36.55;5.93;;;;;;;13.38;100.00;100150.44;4920468;29;20039;-63
2022/10/25 07:57:26;;;;;;;33.35;5.68;;;;;;;13.45;100.00;100155.75;4953151;29;20573;-63
2022/10/25 07:59:52;;;;;;;39.45;5.90;;;;;;;13.51;100.00;100154.81;4953171;29;20077;-63
2022/10/25 08:02:17;;;;;;;33.85;4.88;;;;;;;13.53;100.00;100165.38;4953160;29;20133;-63
2022/10/25 08:04:45;;;;;;;30.58;5.32;;;;;;;13.57;100.00;100158.44;4953439;29;20490;-63
2022/10/25 08:07:11;;;;;;;45.75;6.55;;;;;;;13.62;100.00;100162.09;4920407;29;20398;-63
2022/10/25 08:09:36;;;;;;;31.05;5.15;;;;;;;13.64;100.00;100167.25;4935831;29;20092;-62
2022/10/25 08:12:01;;;;;;;34.97;5.82;;;;;;;13.59;100.00;100159.03;4952980;29;20043;-62
2022/10/25 08:14:27;;;;;;;30.90;5.90;;;;;;;13.58;100.00;100169.03;4935992;29;20106;-63
2022/10/25 08:16:52;;;;;;;36.22;5.78;;;;;;;13.56;100.00;100167.59;4916920;29;20495;-62
2022/10/25 08:19:17;;;;;;;35.47;5.22;;;;;;;13.41;100.00;100149.16;4944003;29;20048;-63
2022/10/25 08:21:43;;;;;;;35.38;5.18;;;;;;;13.62;100.00;100181.00;4936029;29;20114;-63
2022/10/25 08:24:08;;;;;;;29.35;4.97;;;;;;;13.60;100.00;100193.09;4935724;29;20043;-63
2022/10/25 08:26:34;;;;;;;32.33;4.53;;;;;;;13.57;100.00;100180.88;4935764;29;20557;-63
2022/10/25 08:28:59;;;;;;;34.95;5.10;;;;;;;13.56;100.00;100192.75;4935809;29;20572;-65
2022/10/25 08:31:24;;;;;;;31.75;5.30;;;;;;;13.57;100.00;100191.69;4952689;29;20602;-63
2022/10/25 08:33:50;;;;;;;32.72;5.47;;;;;;;13.57;100.00;100193.56;4935751;29;20046;-63
2022/10/25 08:36:15;;;;;;;31.88;5.13;;;;;;;13.58;100.00;100200.66;4935522;29;20122;-63
2022/10/25 08:38:41;;;;;;;32.65;5.25;;;;;;;13.56;100.00;100211.69;4953034;29;20406;-63
2022/10/25 08:41:37;;;;;;;32.38;5.40;;;;;;;13.56;100.00;100202.75;4935631;29;20035;-63
2022/10/25 08:44:40;;;;;;;35.95;5.45;;;;;;;13.57;100.00;100210.63;4906624;29;20577;-63
2022/10/25 08:47:16;;;;;;;30.55;5.18;;;;;;;13.63;100.00;100216.97;4952763;28;20043;-63
2022/10/25 08:49:50;;;;;;;25.42;4.68;;;;;;;13.68;100.00;100225.22;4954453;28;20070;-63
2022/10/25 08:52:43;;;;;;;34.17;5.22;;;;;;;13.71;100.00;100222.06;4956398;29;20062;-62
2022/10/25 08:55:36;;;;;;;31.80;4.95;;;;;;;13.73;100.00;100232.63;4939600;29;20376;-63
2022/10/25 08:58:10;;;;;;;46.10;5.13;;;;;;;13.69;100.00;100220.63;4896850;29;20040;-62
2022/10/25 09:00:42;;;;;;;32.65;4.75;;;;;;;13.75;100.00;100228.63;4881964;29;20040;-63
2022/10/25 09:03:15;;;;;;;27.80;4.18;;;;;;;13.84;100.00;100248.00;4881564;29;20044;-63
2022/10/25 09:05:43;;;;;;;32.08;4.90;;;;;;;13.87;100.00;100255.66;4897267;29;20079;-63
2022/10/25 09:08:46;;;;;;;29.10;4.53;;;;;;;13.83;100.00;100247.19;4881128;29;20653;-63
2022/10/25 09:11:50;;;;;;;28.63;4.82;;;;;;;13.85;100.00;100241.56;4897074;29;20103;-63
2022/10/25 09:14:33;;;;;;;33.95;5.25;;;;;;;13.94;100.00;100255.56;4877933;29;20045;-63
2022/10/25 09:17:15;;;;;;;18.08;3.67;;;;;;;13.96;100.00;100261.56;4878094;29;20052;-63
2022/10/25 09:20:01;;;;;;;26.92;4.70;;;;;;;13.97;100.00;100257.78;4878192;29;20109;-64
2022/10/25 09:22:30;;;;;;;23.70;3.80;;;;;;;14.00;100.00;100258.13;4862757;29;20037;-63
2022/10/25 09:24:58;;;;;;;21.38;4.13;;;;;;;14.06;100.00;100262.63;4878105;29;20437;-63
2022/10/25 09:27:42;;;;;;;21.77;3.78;;;;;;;13.98;100.00;100254.03;4878051;29;20036;-63
2022/10/25 09:30:11;;;;;;;24.33;4.23;;;;;;;14.05;100.00;100271.78;4859892;29;20061;-64
2022/10/25 09:32:45;;;;;;;18.38;2.90;;;;;;;14.01;100.00;100265.22;4877996;29;20295;-63
2022/10/25 09:35:17;;;;;;;21.70;3.58;;;;;;;14.13;100.00;100280.63;4891962;29;20052;-64
2022/10/25 09:37:47;;;;;;;20.55;3.97;;;;;;;14.14;100.00;100279.56;4899643;29;20508;-64
2022/10/25 09:40:20;;;;;;;19.60;3.33;;;;;;;14.18;100.00;100278.88;4915072;29;20130;-64
2022/10/25 09:43:00;;;;;;;17.75;3.70;;;;;;;14.25;100.00;100289.56;4915460;29;20398;-64
2022/10/25 09:45:32;;;;;;;17.45;3.80;;;;;;;14.27;100.00;100298.25;4929999;29;20594;-63
2022/10/25 09:48:24;;;;;;;18.67;3.30;;;;;;;14.24;100.00;100293.34;4936531;29;20041;-63
2022/10/25 09:50:57;;;;;;;19.23;3.13;;;;;;;14.13;100.00;100307.69;4923688;29;20080;-63
2022/10/25 09:53:23;;;;;;;27.00;4.00;;;;;;;14.08;100.00;100298.38;4936485;29;20062;-64
2022/10/25 09:56:02;;;;;;;29.85;3.67;;;;;;;14.00;100.00;100296.00;4919117;29;20062;-63
2022/10/25 09:58:30;;;;;;;25.00;3.95;;;;;;;14.08;100.00;100316.50;4903680;29;20177;-62
2022/10/25 10:01:04;;;;;;;24.17;3.38;;;;;;;14.05;100.00;100312.38;4935361;29;20032;-62
2022/10/25 10:03:31;;;;;;;;;;;;;;;13.97;100.00;100320.00;4936675;29;20114;-63
2022/10/25 10:06:01;;;;;;;23.58;4.50;;;;;;;13.52;100.00;100253.75;4936378;29;20385;-62
2022/10/25 10:08:30;;;;;;;25.88;4.32;;;;;;;13.86;100.00;100321.63;4936051;29;20030;-62
2022/10/25 10:10:56;;;;;;;24.92;3.88;;;;;;;13.92;100.00;100328.81;4918746;29;20032;-63
2022/10/25 10:13:46;;;;;;;24.98;4.13;;;;;;;13.86;100.00;100341.38;4919021;29;20083;-63
2022/10/25 10:16:35;;;;;;;25.05;4.13;;;;;;;13.86;100.00;100340.56;4918694;29;20510;-63
2022/10/25 10:19:22;;;;;;;27.35;4.10;;;;;;;13.86;100.00;100337.88;4935990;29;20032;-63
2022/10/25 10:22:01;;;;;;;25.10;4.38;;;;;;;13.85;100.00;100341.63;4935949;29;20035;-62
2022/10/25 10:24:33;;;;;;;21.85;3.63;;;;;;;13.84;100.00;100348.94;4935674;29;20110;-63
2022/10/25 10:27:01;;;;;;;23.73;4.07;;;;;;;13.83;100.00;100352.66;4935871;29;20047;-63
2022/10/25 10:29:29;;;;;;;33.13;4.82;;;;;;;13.80;100.00;100353.13;4937815;29;20063;-63
2022/10/25 10:31:58;;;;;;;26.38;4.50;;;;;;;13.78;100.00;100357.16;4937699;29;20057;-63
2022/10/25 10:34:30;;;;;;;32.85;4.57;;;;;;;13.74;100.00;100362.19;4954657;29;20041;-63
2022/10/25 10:37:16;;;;;;;30.77;4.38;;;;;;;13.69;100.00;100363.94;4937498;29;20513;-63
2022/10/25 10:39:57;;;;;;;25.63;4.43;;;;;;;13.60;100.00;100366.13;4954723;29;20043;-63
2022/10/25 10:42:31;;;;;;;24.95;4.38;;;;;;;13.57;100.00;100370.09;4954625;29;20102;-63
2022/10/25 10:45:11;;;;;;;27.70;4.05;;;;;;;13.55;100.00;100388.44;4954902;28;20035;-63
2022/10/25 10:48:06;;;;;;;21.52;3.97;;;;;;;13.50;100.00;100385.59;4954684;29;20525;-63
2022/10/25 10:50:37;;;;;;;19.55;3.13;;;;;;;13.48;100.00;100389.59;4938982;29;20039;-63
2022/10/25 10:53:24;;;;;;;22.15;3.55;;;;;;;13.45;100.00;100385.47;4954712;29;20035;-63
2022/10/25 10:55:53;;;;;;;18.90;3.58;;;;;;;13.34;100.00;100370.00;4954628;29;20446;-63
2022/10/25 10:58:34;;;;;;;16.55;2.58;;;;;;;13.50;100.00;100391.00;4954380;29;20027;-63
2022/10/25 11:01:01;;;;;;;19.45;3.00;;;;;;;13.55;100.00;100388.44;4937070;29;20035;-62
2022/10/25 11:03:37;;;;;;;15.75;2.75;;;;;;;13.60;100.00;100390.44;4937189;29;20529;-63
2022/10/25 11:06:22;;;;;;;17.15;2.75;;;;;;;13.51;100.00;100386.41;4936926;29;20030;-63
2022/10/25 11:09:08;;;;;;;17.15;2.70;;;;;;;13.54;100.00;100405.72;4941004;29;20027;-63
2022/10/25 11:11:33;;;;;;;16.13;3.08;;;;;;;13.56;100.00;100400.91;4876023;29;20097;-62
2022/10/25 11:14:00;;;;;;;20.55;3.80;;;;;;;13.60;100.00;100402.09;4890963;29;20049;-62
2022/10/25 11:16:37;;;;;;;14.45;2.58;;;;;;;13.66;100.00;100400.34;4878811;29;20424;-62
2022/10/25 11:19:21;;;;;;;18.27;2.67;;;;;;;13.70;100.00;100409.66;4894896;29;20099;-63
2022/10/25 11:21:52;;;;;;;20.03;2.60;;;;;;;13.76;100.00;100416.03;4894807;29;20102;-63
2022/10/25 11:24:27;;;;;;;21.88;3.35;;;;;;;13.81;100.00;100403.47;4894439;29;20359;-62
2022/10/25 11:27:07;;;;;;;17.50;2.78;;;;;;;13.84;100.00;100410.28;4894785;29;20032;-63
2022/10/25 11:29:52;;;;;;;18.73;3.00;;;;;;;13.84;100.00;100421.94;4894439;29;20108;-63
2022/10/25 11:32:36;;;;;;;17.20;2.90;;;;;;;13.94;100.00;100418.69;4894400;29;20040;-63